Midas — OIZZ — position and weather

sailwx.info

Track history (hours):
 
Tides and Currents Weather Stations Pressure Air Temp Water Temp Dewpoint Dewpoint Depression Visibility Wind Speed Wind Dir Waves Ship Positions

Midas

Last reported at 2017-Nov-23 15:08 UTC. Time now 2017-Nov-24 00:22 UTC.
Position N 17°60' W 063°05'.

Length 108 m; draft 5.3 m.

Type: Cargo ship. MMSI: 230186000.

Date/timePositionNaut miles runAvg speedWind from/ knotsBaromVisibWave heightAir tempDewpointWater temp
2017-Nov-23 15:08N 17°60' W 063°05'  
2017-Nov-19 22:31N 18°25' W 064°36'0 6.1
2017-Nov-19 22:29N 18°25' W 064°36'8514.7
2017-Nov-19 16:43N 18°02' W 063°10'315.7
2017-Nov-19 16:30N 18°01' W 063°07'2 0.3
2017-Nov-19 10:45N 18°00' W 063°05'3 1.9
2017-Nov-19 09:05N 17°59' W 063°08'0 4.8
2017-Nov-19 09:00N 17°60' W 063°09'49 5.1
2017-Nov-18 23:25N 17°17' W 062°44'3513.5
2017-Nov-18 20:50N 17°49' W 062°59'43 3.4
2017-Nov-18 08:14N 17°17' W 062°30'414.9
2017-Nov-18 07:59N 17°14' W 062°27'714.9
2017-Nov-18 07:30N 17°08' W 062°23'714.9
2017-Nov-18 07:01N 17°02' W 062°18'714.9
2017-Nov-18 06:31N 16°57' W 062°13'715.0
2017-Nov-18 06:01N 16°50' W 062°09'815.3
2017-Nov-18 05:30N 16°43' W 062°06'815.2
2017-Nov-18 05:01N 16°36' W 062°03'815.2
2017-Nov-18 04:30N 16°29' W 062°00'815.4
2017-Nov-18 04:01N 16°22' W 061°57'815.0
2017-Nov-18 03:31N 16°15' W 061°54'714.7
2017-Nov-18 03:01N 16°08' W 061°51'714.7
2017-Nov-18 02:31N 16°02' W 061°48'1610.7
2017-Nov-18 01:01N 16°03' W 061°32'014.5
2017-Nov-18 01:01N 16°03' W 061°32'714.6
2017-Nov-18 00:30N 16°11' W 061°31'4 7.0
2017-Nov-17 23:59N 16°14' W 061°33'0 0.1
2017-Nov-17 23:30N 16°14' W 061°33'0 0.0
2017-Nov-17 22:58N 16°14' W 061°33'0 0.0
2017-Nov-17 22:25N 16°14' W 061°33'0 0.0
2017-Nov-17 21:58N 16°14' W 061°33'0 0.0
2017-Nov-17 21:25N 16°14' W 061°33'0 0.0
2017-Nov-17 20:58N 16°14' W 061°33'0 0.0
2017-Nov-17 20:28N 16°14' W 061°33'0 0.0
2017-Nov-17 19:55N 16°14' W 061°33'0 0.0
2017-Nov-17 19:28N 16°14' W 061°33'0 0.0
2017-Nov-17 18:58N 16°14' W 061°33'0 0.0
2017-Nov-17 18:28N 16°14' W 061°33'0 0.0
2017-Nov-17 17:58N 16°14' W 061°33'0 0.0
2017-Nov-17 17:28N 16°14' W 061°33'0 0.0
2017-Nov-17 16:58N 16°14' W 061°33'0 0.0
2017-Nov-17 16:28N 16°14' W 061°33'0 0.0
2017-Nov-17 15:58N 16°14' W 061°33'0 0.0
2017-Nov-17 15:28N 16°14' W 061°33'0 0.0
2017-Nov-17 14:58N 16°14' W 061°33'0 0.0
2017-Nov-17 14:28N 16°14' W 061°33'0 0.0
2017-Nov-17 13:58N 16°14' W 061°33'0 0.0
2017-Nov-17 13:28N 16°14' W 061°33'0 0.0
2017-Nov-17 12:58N 16°14' W 061°33'0 0.0
2017-Nov-17 12:28N 16°14' W 061°33'0 0.0
2017-Nov-17 11:58N 16°14' W 061°33'0 0.0
2017-Nov-17 11:25N 16°14' W 061°33'0 0.0
2017-Nov-17 10:55N 16°14' W 061°33'0 0.0
2017-Nov-17 10:30N 16°14' W 061°33'3 5.5
2017-Nov-17 10:00N 16°12' W 061°31'4 7.8
2017-Nov-17 09:30N 16°08' W 061°31'4 7.0
2017-Nov-17 09:00N 16°04' W 061°31'4 6.5
2017-Nov-17 08:25N 16°01' W 061°32'1510.3
2017-Nov-17 06:59N 15°58' W 061°47'714.8
2017-Nov-17 06:30N 16°04' W 061°51'714.9
2017-Nov-17 06:00N 16°11' W 061°52'815.3
2017-Nov-17 05:30N 16°18' W 061°53'815.2
2017-Nov-17 05:00N 16°26' W 061°54'714.4
2017-Nov-17 04:30N 16°33' W 061°56'714.4
2017-Nov-17 04:00N 16°40' W 061°56'714.3
2017-Nov-17 03:30N 16°47' W 061°57'714.1
2017-Nov-17 03:00N 16°54' W 061°58'714.4
2017-Nov-17 02:30N 17°02' W 061°59'714.3
2017-Nov-17 02:00N 17°09' W 061°57'611.5
2017-Nov-17 01:30N 17°07' W 061°51'0 0.2
2017-Nov-17 01:00N 17°07' W 061°51'0 0.0
2017-Nov-17 00:28N 17°07' W 061°51'0 0.0
2017-Nov-16 23:58N 17°07' W 061°51'0 0.0
2017-Nov-16 23:28N 17°07' W 061°51'0 0.0
2017-Nov-16 22:58N 17°07' W 061°51'0 0.0
2017-Nov-16 22:28N 17°07' W 061°51'0 0.0
2017-Nov-16 21:58N 17°07' W 061°51'0 0.0
2017-Nov-16 21:28N 17°07' W 061°51'0 0.0
2017-Nov-16 20:58N 17°07' W 061°51'0 0.0
2017-Nov-16 20:28N 17°07' W 061°51'0 0.0
2017-Nov-16 19:55N 17°07' W 061°51'0 0.0
2017-Nov-16 19:28N 17°07' W 061°51'0 0.0
2017-Nov-16 18:58N 17°07' W 061°51'0 0.0
2017-Nov-16 18:28N 17°07' W 061°51'0 0.0
2017-Nov-16 17:55N 17°07' W 061°51'0 0.0
2017-Nov-16 17:28N 17°07' W 061°51'0 0.0
2017-Nov-16 16:58N 17°07' W 061°51'0 0.0
2017-Nov-16 16:30N 17°07' W 061°51'2 4.9
2017-Nov-16 16:00N 17°08' W 061°54'510.1
2017-Nov-16 15:30N 17°12' W 061°58'510.0
2017-Nov-16 15:00N 17°15' W 062°02'5 9.9
2017-Nov-16 14:30N 17°18' W 062°06'510.7
2017-Nov-16 14:00N 17°21' W 062°10'511.0
2017-Nov-16 13:30N 17°24' W 062°15'510.7
2017-Nov-16 13:00N 17°28' W 062°19'510.7
2017-Nov-16 12:30N 17°31' W 062°24'510.7
2017-Nov-16 12:00N 17°34' W 062°28'510.6
2017-Nov-16 11:30N 17°38' W 062°33'510.8
2017-Nov-16 11:00N 17°41' W 062°37'910.6
2017-Nov-16 10:09N 17°46' W 062°45'210.5
2017-Nov-16 09:55N 17°48' W 062°47'21 1.5
2017-Nov-15 20:01N 18°00' W 063°05'0 0.0
2017-Nov-15 19:58N 18°00' W 063°05'0 0.0
2017-Nov-15 19:25N 18°00' W 063°05'0 0.0
2017-Nov-15 18:58N 18°00' W 063°05'0 0.0
2017-Nov-15 18:28N 18°00' W 063°05'0 0.0
2017-Nov-15 17:52N 18°00' W 063°05'0 0.0
2017-Nov-15 16:58N 18°00' W 063°05'0 0.0
2017-Nov-15 16:30N 18°00' W 063°05'0 0.0
2017-Nov-15 15:58N 18°00' W 063°05'0 0.1
2017-Nov-15 15:28N 18°00' W 063°05'1 1.5
2017-Nov-15 14:59N 18°00' W 063°06'14 2.8
2017-Nov-15 10:06N 17°54' W 062°53'514.8
2017-Nov-15 09:47N 17°56' W 062°57'8 0.6
2017-Nov-14 19:54N 17°60' W 063°05'  
Track history (hours):
 
Tides and Currents Weather Stations Pressure Air Temp Water Temp Dewpoint Dewpoint Depression Visibility Wind Speed Wind Dir Waves Ship Positions

Midas

Last reported at 2017-Nov-23 15:08 UTC. Time now 2017-Nov-24 00:22 UTC.
Position N 17°60' W 063°05'.

Length 108 m; draft 5.3 m.

Type: Cargo ship. MMSI: 230186000.

Date/timePositionNaut miles runAvg speedWind from/ knotsBaromVisibWave heightAir tempDewpointWater temp
2017-Nov-23 15:08N 17°60' W 063°05'  
2017-Nov-19 22:31N 18°25' W 064°36'0 6.1
2017-Nov-19 22:29N 18°25' W 064°36'8514.7
2017-Nov-19 16:43N 18°02' W 063°10'315.7
2017-Nov-19 16:30N 18°01' W 063°07'2 0.3
2017-Nov-19 10:45N 18°00' W 063°05'3 1.9
2017-Nov-19 09:05N 17°59' W 063°08'0 4.8
2017-Nov-19 09:00N 17°60' W 063°09'49 5.1
2017-Nov-18 23:25N 17°17' W 062°44'3513.5
2017-Nov-18 20:50N 17°49' W 062°59'43 3.4
2017-Nov-18 08:14N 17°17' W 062°30'414.9
2017-Nov-18 07:59N 17°14' W 062°27'714.9
2017-Nov-18 07:30N 17°08' W 062°23'714.9
2017-Nov-18 07:01N 17°02' W 062°18'714.9
2017-Nov-18 06:31N 16°57' W 062°13'715.0
2017-Nov-18 06:01N 16°50' W 062°09'815.3
2017-Nov-18 05:30N 16°43' W 062°06'815.2
2017-Nov-18 05:01N 16°36' W 062°03'815.2
2017-Nov-18 04:30N 16°29' W 062°00'815.4
2017-Nov-18 04:01N 16°22' W 061°57'815.0
2017-Nov-18 03:31N 16°15' W 061°54'714.7
2017-Nov-18 03:01N 16°08' W 061°51'714.7
2017-Nov-18 02:31N 16°02' W 061°48'1610.7
2017-Nov-18 01:01N 16°03' W 061°32'014.5
2017-Nov-18 01:01N 16°03' W 061°32'714.6
2017-Nov-18 00:30N 16°11' W 061°31'4 7.0
2017-Nov-17 23:59N 16°14' W 061°33'0 0.1
2017-Nov-17 23:30N 16°14' W 061°33'0 0.0
2017-Nov-17 22:58N 16°14' W 061°33'0 0.0
2017-Nov-17 22:25N 16°14' W 061°33'0 0.0
2017-Nov-17 21:58N 16°14' W 061°33'0 0.0
2017-Nov-17 21:25N 16°14' W 061°33'0 0.0
2017-Nov-17 20:58N 16°14' W 061°33'0 0.0
2017-Nov-17 20:28N 16°14' W 061°33'0 0.0
2017-Nov-17 19:55N 16°14' W 061°33'0 0.0
2017-Nov-17 19:28N 16°14' W 061°33'0 0.0
2017-Nov-17 18:58N 16°14' W 061°33'0 0.0
2017-Nov-17 18:28N 16°14' W 061°33'0 0.0
2017-Nov-17 17:58N 16°14' W 061°33'0 0.0
2017-Nov-17 17:28N 16°14' W 061°33'0 0.0
2017-Nov-17 16:58N 16°14' W 061°33'0 0.0
2017-Nov-17 16:28N 16°14' W 061°33'0 0.0
2017-Nov-17 15:58N 16°14' W 061°33'0 0.0
2017-Nov-17 15:28N 16°14' W 061°33'0 0.0
2017-Nov-17 14:58N 16°14' W 061°33'0 0.0
2017-Nov-17 14:28N 16°14' W 061°33'0 0.0
2017-Nov-17 13:58N 16°14' W 061°33'0 0.0
2017-Nov-17 13:28N 16°14' W 061°33'0 0.0
2017-Nov-17 12:58N 16°14' W 061°33'0 0.0
2017-Nov-17 12:28N 16°14' W 061°33'0 0.0
2017-Nov-17 11:58N 16°14' W 061°33'0 0.0
2017-Nov-17 11:25N 16°14' W 061°33'0 0.0
2017-Nov-17 10:55N 16°14' W 061°33'0 0.0
2017-Nov-17 10:30N 16°14' W 061°33'3 5.5
2017-Nov-17 10:00N 16°12' W 061°31'4 7.8
2017-Nov-17 09:30N 16°08' W 061°31'4 7.0
2017-Nov-17 09:00N 16°04' W 061°31'4 6.5
2017-Nov-17 08:25N 16°01' W 061°32'1510.3
2017-Nov-17 06:59N 15°58' W 061°47'714.8
2017-Nov-17 06:30N 16°04' W 061°51'714.9
2017-Nov-17 06:00N 16°11' W 061°52'815.3
2017-Nov-17 05:30N 16°18' W 061°53'815.2
2017-Nov-17 05:00N 16°26' W 061°54'714.4
2017-Nov-17 04:30N 16°33' W 061°56'714.4
2017-Nov-17 04:00N 16°40' W 061°56'714.3
2017-Nov-17 03:30N 16°47' W 061°57'714.1
2017-Nov-17 03:00N 16°54' W 061°58'714.4
2017-Nov-17 02:30N 17°02' W 061°59'714.3
2017-Nov-17 02:00N 17°09' W 061°57'611.5
2017-Nov-17 01:30N 17°07' W 061°51'0 0.2
2017-Nov-17 01:00N 17°07' W 061°51'0 0.0
2017-Nov-17 00:28N 17°07' W 061°51'0 0.0
2017-Nov-16 23:58N 17°07' W 061°51'0 0.0
2017-Nov-16 23:28N 17°07' W 061°51'0 0.0
2017-Nov-16 22:58N 17°07' W 061°51'0 0.0
2017-Nov-16 22:28N 17°07' W 061°51'0 0.0
2017-Nov-16 21:58N 17°07' W 061°51'0 0.0
2017-Nov-16 21:28N 17°07' W 061°51'0 0.0
2017-Nov-16 20:58N 17°07' W 061°51'0 0.0
2017-Nov-16 20:28N 17°07' W 061°51'0 0.0
2017-Nov-16 19:55N 17°07' W 061°51'0 0.0
2017-Nov-16 19:28N 17°07' W 061°51'0 0.0
2017-Nov-16 18:58N 17°07' W 061°51'0 0.0
2017-Nov-16 18:28N 17°07' W 061°51'0 0.0
2017-Nov-16 17:55N 17°07' W 061°51'0 0.0
2017-Nov-16 17:28N 17°07' W 061°51'0 0.0
2017-Nov-16 16:58N 17°07' W 061°51'0 0.0
2017-Nov-16 16:30N 17°07' W 061°51'2 4.9
2017-Nov-16 16:00N 17°08' W 061°54'510.1
2017-Nov-16 15:30N 17°12' W 061°58'510.0
2017-Nov-16 15:00N 17°15' W 062°02'5 9.9
2017-Nov-16 14:30N 17°18' W 062°06'510.7
2017-Nov-16 14:00N 17°21' W 062°10'511.0
2017-Nov-16 13:30N 17°24' W 062°15'510.7
2017-Nov-16 13:00N 17°28' W 062°19'510.7
2017-Nov-16 12:30N 17°31' W 062°24'510.7
2017-Nov-16 12:00N 17°34' W 062°28'510.6
2017-Nov-16 11:30N 17°38' W 062°33'510.8
2017-Nov-16 11:00N 17°41' W 062°37'910.6
2017-Nov-16 10:09N 17°46' W 062°45'210.5
2017-Nov-16 09:55N 17°48' W 062°47'21 1.5
2017-Nov-15 20:01N 18°00' W 063°05'0 0.0
2017-Nov-15 19:58N 18°00' W 063°05'0 0.0
2017-Nov-15 19:25N 18°00' W 063°05'0 0.0
2017-Nov-15 18:58N 18°00' W 063°05'0 0.0
2017-Nov-15 18:28N 18°00' W 063°05'0 0.0
2017-Nov-15 17:52N 18°00' W 063°05'0 0.0
2017-Nov-15 16:58N 18°00' W 063°05'0 0.0
2017-Nov-15 16:30N 18°00' W 063°05'0 0.0
2017-Nov-15 15:58N 18°00' W 063°05'0 0.1
2017-Nov-15 15:28N 18°00' W 063°05'1 1.5
2017-Nov-15 14:59N 18°00' W 063°06'14 2.8
2017-Nov-15 10:06N 17°54' W 062°53'514.8
2017-Nov-15 09:47N 17°56' W 062°57'8 0.6
2017-Nov-14 19:54N 17°60' W 063°05'  

Dump ship's entire track history